Vicksburg, Pennsylvania
Current Conditions -  °F | °C
As of 4:53 PM on Monday 20 Oct 2014 (Local Time) from KSEG Reporting Station
Scattered Clouds Scattered Clouds  
Wind Chill: 59°   Ceiling: Unl
Heat Index: 59°   Visibility: 10mi
Dew Point: 37°   Wind: 5mph
Humidity: 44%   Direction: 190°S
Pressure: 29.92"   Gusts: NA
Location:  40.93°N, 76.98°W
Report Text: KSEG 202053Z AUTO 19004KT 10SM SCT110 15/03 A2992 RMK AO2 SLP134 T01500028 55015
Loading
Personal Weather Stations






























Interactive Weather Map
Tropical Storm Tracking
New forecast layout! Learn more

10-Day Weather Forecast

Advertisements
Track Severe Weather on mobile